Time;durP1;ratioP1;P1;durP2;ratioP2;P2;SDS_P1;SDS_P2;PMS_P1;PMS_P2;Temp;Humidity;BMP_temperature;BMP_pressure;BME280_temperature;BME280_humidity;BME280_pressure;Samples;Min_cycle;Max_cycle;Signal;HPM_P1;HPM_P2
2022/05/11 00:00:44;;;;;;;12.18;8.60;;;;;;;;;;6311143;28;20047;-80
2022/05/11 00:03:46;;;;;;;12.60;8.50;;;;;;;;;;6290984;28;20048;-80
2022/05/11 00:06:49;;;;;;;9.52;8.18;;;;;;;;;;6288627;28;20101;-81
2022/05/11 00:09:51;;;;;;;;;;;;;;;;;;6288302;28;20073;-80
2022/05/11 00:12:52;;;;;;;9.52;7.53;;;;;;;;;;6288082;28;20035;-80
2022/05/11 00:15:55;;;;;;;10.77;7.95;;;;;;;;;;6289037;28;20060;-81
2022/05/11 00:18:56;;;;;;;10.38;8.02;;;;;;;;;;6306396;28;20120;-81
2022/05/11 00:21:58;;;;;;;9.35;7.90;;;;;;;;;;6312469;28;20104;-80
2022/05/11 00:25:01;;;;;;;10.63;8.25;;;;;;;;;;6310440;28;20145;-80
2022/05/11 00:28:03;;;;;;;9.73;8.43;;;;;;;;;;6313674;28;20044;-80
2022/05/11 00:31:04;;;;;;;10.80;8.68;;;;;;;;;;6311041;28;20040;-80
2022/05/11 00:34:06;;;;;;;12.30;9.30;;;;;;;;;;6292384;28;20059;-80
2022/05/11 00:37:08;;;;;;;9.75;8.48;;;;;;;;;;6285168;28;20118;-81
2022/05/11 00:40:10;;;;;;;11.95;8.60;;;;;;;;;;6290488;28;20045;-80
2022/05/11 00:43:12;;;;;;;11.50;8.55;;;;;;;;;;6292710;28;20048;-81
2022/05/11 00:46:24;;;;;;;11.15;8.48;;;;;;;;;;6291912;28;20105;-81
2022/05/11 00:49:34;;;;;;;10.55;8.35;;;;;;;;;;6292763;28;20048;-82
2022/05/11 00:52:43;;;;;;;9.85;8.25;;;;;;;;;;6291288;28;20047;-80
2022/05/11 00:55:53;;;;;;;9.05;8.10;;;;;;;;;;6293543;28;20071;-81
2022/05/11 00:58:58;;;;;;;10.77;8.40;;;;;;;;;;6309176;28;20052;-80
2022/05/11 01:02:06;;;;;;;11.35;8.10;;;;;;;;;;6312552;28;20402;-80
2022/05/11 01:05:09;;;;;;;9.60;7.88;;;;;;;;;;6292823;28;20131;-80
2022/05/11 01:08:13;;;;;;;9.73;7.72;;;;;;;;;;6293656;28;20416;-81
2022/05/11 01:11:15;;;;;;;10.50;8.20;;;;;;;;;;6293285;28;20074;-80
2022/05/11 01:14:35;;;;;;;9.70;7.90;;;;;;;;;;6317360;28;20131;-80
2022/05/11 01:17:38;;;;;;;10.48;7.75;;;;;;;;;;6310137;28;20052;-80
2022/05/11 01:20:40;;;;;;;9.57;8.13;;;;;;;;;;6291971;28;20072;-82
2022/05/11 01:23:57;;;;;;;10.50;8.30;;;;;;;;;;6292864;28;20044;-80
2022/05/11 01:27:32;;;;;;;11.15;8.35;;;;;;;;;;6296089;28;20040;-82
2022/05/11 01:30:35;;;;;;;11.50;8.30;;;;;;;;;;6316305;28;20132;-81
2022/05/11 01:33:41;;;;;;;11.90;8.50;;;;;;;;;;6302061;28;20048;-81
2022/05/11 01:36:44;;;;;;;11.07;8.63;;;;;;;;;;6291672;28;20117;-81
2022/05/11 01:39:46;;;;;;;9.93;8.25;;;;;;;;;;6285383;28;20152;-80
2022/05/11 01:42:50;;;;;;;10.80;8.45;;;;;;;;;;6295868;28;20123;-80
2022/05/11 01:45:52;;;;;;;9.50;8.45;;;;;;;;;;6290873;28;20063;-80
2022/05/11 01:48:54;;;;;;;10.80;8.40;;;;;;;;;;6308898;28;20111;-81
2022/05/11 01:51:56;;;;;;;11.77;8.60;;;;;;;;;;6316014;28;20082;-80
2022/05/11 01:54:57;;;;;;;11.73;8.30;;;;;;;;;;6310675;28;20048;-81
2022/05/11 01:58:00;;;;;;;10.80;8.80;;;;;;;;;;6291600;28;20113;-81
2022/05/11 02:01:03;;;;;;;10.98;8.18;;;;;;;;;;6289364;28;20048;-82
2022/05/11 02:07:49;;;;;;;10.27;7.93;;;;;;;;;;6290775;28;20067;-80
2022/05/11 02:10:46;;;;;;;10.38;8.18;;;;;;;;;;6290571;28;20060;-82
2022/05/11 02:13:48;;;;;;;10.05;7.68;;;;;;;;;;6298409;28;20108;-80
2022/05/11 02:16:50;;;;;;;10.80;8.23;;;;;;;;;;6295555;28;20044;-81
2022/05/11 02:19:52;;;;;;;9.15;7.72;;;;;;;;;;6319868;28;20044;-81
2022/05/11 02:22:53;;;;;;;9.75;7.68;;;;;;;;;;6315300;28;20040;-81
2022/05/11 02:25:57;;;;;;;9.70;8.13;;;;;;;;;;6320093;28;20048;-82
2022/05/11 02:28:58;;;;;;;9.55;8.38;;;;;;;;;;6296336;28;20048;-81
2022/05/11 02:32:02;;;;;;;10.30;8.30;;;;;;;;;;6296042;28;20816;-81
2022/05/11 02:35:15;;;;;;;11.18;8.27;;;;;;;;;;6318733;28;20053;-82
2022/05/11 02:38:29;;;;;;;9.02;7.55;;;;;;;;;;6295879;28;20121;-81
2022/05/11 02:41:30;;;;;;;;;;;;;;;;;;6305902;28;20070;-81
2022/05/11 02:44:32;;;;;;;9.60;8.05;;;;;;;;;;6319243;28;19986;-81
2022/05/11 02:47:34;;;;;;;9.48;8.20;;;;;;;;;;6306159;28;20127;-81
2022/05/11 02:50:44;;;;;;;10.43;8.25;;;;;;;;;;6318060;28;20112;-80
2022/05/11 02:53:45;;;;;;;11.60;7.93;;;;;;;;;;6319728;28;20067;-81
2022/05/11 02:56:47;;;;;;;9.07;8.05;;;;;;;;;;6290282;28;20047;-81
2022/05/11 02:59:49;;;;;;;10.75;8.13;;;;;;;;;;6292477;28;20485;-81
2022/05/11 03:02:50;;;;;;;14.77;8.98;;;;;;;;;;6292707;28;20044;-81
2022/05/11 03:05:52;;;;;;;10.30;7.93;;;;;;;;;;6293395;28;20409;-82
2022/05/11 03:08:54;;;;;;;9.60;8.50;;;;;;;;;;6294842;28;20128;-81
2022/05/11 03:11:56;;;;;;;10.80;8.38;;;;;;;;;;6299238;28;20044;-80
2022/05/11 03:14:58;;;;;;;13.65;8.48;;;;;;;;;;6316235;28;20123;-80
2022/05/11 03:18:00;;;;;;;10.23;8.07;;;;;;;;;;6315581;28;20044;-81
2022/05/11 03:21:02;;;;;;;11.73;8.00;;;;;;;;;;6297400;28;20052;-81
2022/05/11 03:24:03;;;;;;;10.70;8.00;;;;;;;;;;6291776;28;20051;-79
2022/05/11 03:27:05;;;;;;;10.07;8.32;;;;;;;;;;6291429;28;20036;-80
2022/05/11 03:30:07;;;;;;;12.07;8.27;;;;;;;;;;6292175;28;20130;-80
2022/05/11 03:36:29;;;;;;;11.05;8.27;;;;;;;;;;6310390;28;20514;-79
2022/05/11 03:39:31;;;;;;;12.55;8.73;;;;;;;;;;6292920;28;20052;-79
2022/05/11 03:42:33;;;;;;;13.20;8.90;;;;;;;;;;6303028;28;20044;-79
2022/05/11 03:45:35;;;;;;;10.43;8.13;;;;;;;;;;6283578;28;20044;-80
2022/05/11 03:48:39;;;;;;;10.30;8.25;;;;;;;;;;6292976;28;20052;-79
2022/05/11 03:51:41;;;;;;;9.88;8.18;;;;;;;;;;6291690;28;20100;-80
2022/05/11 03:54:42;;;;;;;10.65;8.30;;;;;;;;;;6289118;28;20776;-80
2022/05/11 03:57:44;;;;;;;9.80;8.30;;;;;;;;;;6308313;28;20125;-79
2022/05/11 04:00:46;;;;;;;11.15;8.98;;;;;;;;;;6299158;28;20056;-80
2022/05/11 04:03:47;;;;;;;12.02;8.60;;;;;;;;;;6289761;28;20488;-80
2022/05/11 04:06:49;;;;;;;13.00;8.23;;;;;;;;;;6291140;28;20040;-81
2022/05/11 04:09:50;;;;;;;10.95;8.43;;;;;;;;;;6314404;28;20516;-80
2022/05/11 04:12:52;;;;;;;11.90;8.45;;;;;;;;;;6332399;28;20096;-80
2022/05/11 04:15:54;;;;;;;10.70;7.97;;;;;;;;;;6347751;28;20124;-80
2022/05/11 04:18:56;;;;;;;10.18;7.90;;;;;;;;;;6328436;28;20044;-80
2022/05/11 04:21:58;;;;;;;9.68;8.02;;;;;;;;;;6321308;28;20068;-81
2022/05/11 04:25:01;;;;;;;11.48;8.55;;;;;;;;;;6303901;28;20040;-80
2022/05/11 04:28:06;;;;;;;10.35;8.07;;;;;;;;;;6320569;28;20044;-80
2022/05/11 04:31:09;;;;;;;10.98;8.85;;;;;;;;;;6321781;28;20036;-79
2022/05/11 04:34:11;;;;;;;11.55;8.50;;;;;;;;;;6318621;28;20048;-81
2022/05/11 04:37:13;;;;;;;10.73;8.63;;;;;;;;;;6302347;28;20047;-79
2022/05/11 04:40:15;;;;;;;12.25;8.63;;;;;;;;;;6320012;28;20040;-80
2022/05/11 04:43:18;;;;;;;11.55;8.48;;;;;;;;;;6320940;28;20048;-79
2022/05/11 04:46:19;;;;;;;10.85;8.88;;;;;;;;;;6320891;28;20047;-79
2022/05/11 04:49:23;;;;;;;11.50;8.88;;;;;;;;;;6319541;28;20044;-78
2022/05/11 04:52:25;;;;;;;10.95;8.75;;;;;;;;;;6320081;28;20052;-79
2022/05/11 04:55:26;;;;;;;11.68;8.55;;;;;;;;;;6320030;28;20068;-79
2022/05/11 04:58:28;;;;;;;13.15;8.80;;;;;;;;;;6345003;28;20079;-80
2022/05/11 05:01:30;;;;;;;10.38;8.45;;;;;;;;;;6343043;28;20048;-78
2022/05/11 05:04:32;;;;;;;10.60;8.15;;;;;;;;;;6320801;28;20044;-79
2022/05/11 05:07:34;;;;;;;9.95;8.55;;;;;;;;;;6302729;28;20048;-80
2022/05/11 05:10:36;;;;;;;15.03;8.70;;;;;;;;;;6324097;28;20097;-80
2022/05/11 05:13:38;;;;;;;11.70;9.20;;;;;;;;;;6345681;28;20059;-80
2022/05/11 05:16:40;;;;;;;11.55;8.65;;;;;;;;;;6344193;28;20059;-80
2022/05/11 05:19:44;;;;;;;13.57;9.27;;;;;;;;;;6336127;28;20052;-78
2022/05/11 05:22:45;;;;;;;13.68;9.05;;;;;;;;;;6320794;28;20399;-80
2022/05/11 05:25:47;;;;;;;12.32;8.73;;;;;;;;;;6316971;28;20056;-80
2022/05/11 05:32:10;;;;;;;12.75;8.75;;;;;;;;;;6312947;28;20259;-81
2022/05/11 05:35:16;;;;;;;11.38;8.70;;;;;;;;;;6293644;28;20652;-81
2022/05/11 05:38:17;;;;;;;11.85;8.85;;;;;;;;;;6274416;28;20126;-80
2022/05/11 05:41:19;;;;;;;10.23;8.32;;;;;;;;;;6294281;28;20052;-81
2022/05/11 05:44:22;;;;;;;13.40;8.65;;;;;;;;;;6296268;28;20472;-82
2022/05/11 05:47:24;;;;;;;11.40;8.65;;;;;;;;;;6296416;28;20047;-81
2022/05/11 05:50:25;;;;;;;11.82;8.32;;;;;;;;;;6295344;28;20092;-80
2022/05/11 05:53:27;;;;;;;12.52;8.75;;;;;;;;;;6294525;28;20110;-81
2022/05/11 05:56:29;;;;;;;9.45;8.45;;;;;;;;;;6298442;28;20050;-80
2022/05/11 05:59:31;;;;;;;12.65;8.95;;;;;;;;;;6321490;28;20068;-81
2022/05/11 06:02:32;;;;;;;11.70;8.43;;;;;;;;;;6313286;28;20045;-81
2022/05/11 06:05:34;;;;;;;10.57;8.15;;;;;;;;;;6295284;28;20043;-80
2022/05/11 06:08:37;;;;;;;10.88;8.27;;;;;;;;;;6296514;28;20052;-80
2022/05/11 06:11:39;;;;;;;11.70;8.80;;;;;;;;;;6304165;28;20142;-80
2022/05/11 06:14:41;;;;;;;9.95;7.75;;;;;;;;;;6321238;28;20119;-79
2022/05/11 06:17:42;;;;;;;10.55;8.05;;;;;;;;;;6316398;28;20044;-80
2022/05/11 06:20:44;;;;;;;9.05;6.78;;;;;;;;;;6319411;28;20081;-80
2022/05/11 06:23:46;;;;;;;6.82;5.10;;;;;;;;;;6320751;28;20044;-80
2022/05/11 06:26:48;;;;;;;5.47;4.90;;;;;;;;;;6315722;28;20052;-81
2022/05/11 06:30:05;;;;;;;5.82;5.22;;;;;;;;;;6292941;28;20362;-81
2022/05/11 06:33:07;;;;;;;5.25;4.75;;;;;;;;;;6294010;28;20123;-81
2022/05/11 06:36:09;;;;;;;5.80;4.90;;;;;;;;;;6291844;28;20113;-79
2022/05/11 06:39:11;;;;;;;7.10;4.78;;;;;;;;;;6295078;28;20040;-80
2022/05/11 06:42:20;;;;;;;6.93;5.00;;;;;;;;;;6293632;28;20068;-79
2022/05/11 06:45:23;;;;;;;6.10;5.05;;;;;;;;;;6294801;28;20062;-82
2022/05/11 06:48:27;;;;;;;5.40;4.78;;;;;;;;;;6283996;28;20045;-82
2022/05/11 06:51:28;;;;;;;5.35;4.78;;;;;;;;;;6293091;28;20127;-80
2022/05/11 07:01:10;;;;;;;6.90;4.80;;;;;;;;;;6293734;28;20048;-79
2022/05/11 07:04:12;;;;;;;5.03;4.57;;;;;;;;;;6291224;28;20043;-80
2022/05/11 07:07:15;;;;;;;5.05;4.55;;;;;;;;;;6292909;28;20246;-81
2022/05/11 07:10:17;;;;;;;4.80;4.40;;;;;;;;;;6291975;28;20065;-79
2022/05/11 07:13:18;;;;;;;5.68;4.40;;;;;;;;;;6315448;28;20060;-80
2022/05/11 07:16:21;;;;;;;5.20;4.70;;;;;;;;;;6327963;28;20082;-79
2022/05/11 07:19:24;;;;;;;4.97;4.30;;;;;;;;;;6326900;28;20058;-80
2022/05/11 07:22:26;;;;;;;6.35;4.53;;;;;;;;;;6326758;28;20457;-80
2022/05/11 07:25:29;;;;;;;5.53;4.40;;;;;;;;;;6327134;28;20825;-80
2022/05/11 07:28:30;;;;;;;6.60;4.25;;;;;;;;;;6324294;28;20920;-80
2022/05/11 07:31:32;;;;;;;8.43;4.85;;;;;;;;;;6307164;28;20128;-79
2022/05/11 07:34:34;;;;;;;5.50;4.60;;;;;;;;;;6296933;28;20118;-81
2022/05/11 07:37:35;;;;;;;5.03;4.55;;;;;;;;;;6291475;28;20126;-81
2022/05/11 07:40:38;;;;;;;6.28;4.80;;;;;;;;;;6282204;28;20071;-80
2022/05/11 07:43:39;;;;;;;4.78;4.38;;;;;;;;;;6288501;28;20053;-79
2022/05/11 07:46:44;;;;;;;7.00;4.75;;;;;;;;;;6291252;28;20040;-80
2022/05/11 07:49:46;;;;;;;5.50;5.00;;;;;;;;;;6285752;28;20075;-79
2022/05/11 07:52:48;;;;;;;5.57;4.78;;;;;;;;;;6301697;28;20109;-80
2022/05/11 07:59:52;;;;;;;7.38;4.97;;;;;;;;;;6298173;28;20170;-80
2022/05/11 08:02:34;;;;;;;4.88;4.47;;;;;;;;;;6300892;28;20643;-81
2022/05/11 08:05:36;;;;;;;5.05;4.30;;;;;;;;;;6322587;28;20063;-80
2022/05/11 08:08:37;;;;;;;6.47;4.40;;;;;;;;;;6323392;28;20054;-80
2022/05/11 08:11:39;;;;;;;5.35;4.47;;;;;;;;;;6306251;28;20098;-80
2022/05/11 08:14:41;;;;;;;6.82;4.38;;;;;;;;;;6298834;28;20144;-81
2022/05/11 08:17:44;;;;;;;4.50;4.13;;;;;;;;;;6298592;28;20410;-79
2022/05/11 08:20:47;;;;;;;6.00;4.78;;;;;;;;;;6297317;28;20048;-80
2022/05/11 08:23:49;;;;;;;4.88;4.47;;;;;;;;;;6313338;28;20044;-80
2022/05/11 08:26:51;;;;;;;6.97;4.70;;;;;;;;;;6318762;28;20549;-80
2022/05/11 08:33:22;;;;;;;6.80;4.20;;;;;;;;;;6321779;28;20454;-80
2022/05/11 08:36:45;;;;;;;7.57;4.30;;;;;;;;;;6345869;28;20640;-80
2022/05/11 08:39:48;;;;;;;5.55;4.30;;;;;;;;;;6328970;28;20071;-81
2022/05/11 08:42:50;;;;;;;7.90;4.53;;;;;;;;;;6325591;28;20101;-80
2022/05/11 08:46:10;;;;;;;7.43;4.40;;;;;;;;;;6300478;28;20055;-80
2022/05/11 08:49:26;;;;;;;5.22;4.43;;;;;;;;;;6294178;28;20128;-80
2022/05/11 08:52:47;;;;;;;4.80;4.20;;;;;;;;;;6299967;28;20113;-79
2022/05/11 08:55:51;;;;;;;4.78;4.38;;;;;;;;;;6296511;28;20129;-79
2022/05/11 08:58:54;;;;;;;5.93;4.53;;;;;;;;;;6295594;28;20147;-79
2022/05/11 09:02:14;;;;;;;5.25;4.53;;;;;;;;;;6316467;28;20685;-78
2022/05/11 09:05:20;;;;;;;4.90;4.50;;;;;;;;;;6316814;28;20067;-80
2022/05/11 09:08:22;;;;;;;4.97;4.57;;;;;;;;;;6294446;28;20567;-80
2022/05/11 09:11:28;;;;;;;5.57;4.60;;;;;;;;;;6293366;28;20062;-81
2022/05/11 09:14:40;;;;;;;4.50;4.10;;;;;;;;;;6318573;28;20048;-79
2022/05/11 09:17:43;;;;;;;5.57;4.20;;;;;;;;;;6329092;28;20135;-80
2022/05/11 09:20:48;;;;;;;4.95;4.45;;;;;;;;;;6345881;28;20040;-82
2022/05/11 09:24:03;;;;;;;7.80;4.88;;;;;;;;;;6327984;28;20075;-81
2022/05/11 09:27:23;;;;;;;6.43;4.10;;;;;;;;;;6335175;28;20425;-81
2022/05/11 09:30:30;;;;;;;7.38;4.10;;;;;;;;;;6295429;28;20109;-80
2022/05/11 09:33:33;;;;;;;6.88;3.90;;;;;;;;;;6312513;28;20051;-80
2022/05/11 09:36:41;;;;;;;5.00;4.32;;;;;;;;;;6294358;28;20064;-80
2022/05/11 09:39:52;;;;;;;4.85;4.30;;;;;;;;;;6319692;28;20640;-80
2022/05/11 09:43:00;;;;;;;9.18;4.72;;;;;;;;;;6329799;28;20059;-80
2022/05/11 09:46:33;;;;;;;8.25;4.57;;;;;;;;;;6338093;28;20040;-80
2022/05/11 09:49:35;;;;;;;6.05;4.30;;;;;;;;;;6291894;28;20051;-80
2022/05/11 09:52:37;;;;;;;5.70;4.40;;;;;;;;;;6292676;28;20102;-80
2022/05/11 09:55:39;;;;;;;4.35;3.92;;;;;;;;;;6291854;28;20191;-79
2022/05/11 09:58:41;;;;;;;5.23;3.97;;;;;;;;;;6309195;28;20085;-82
2022/05/11 10:01:50;;;;;;;4.28;3.88;;;;;;;;;;6313138;28;20417;-79
2022/05/11 10:05:03;;;;;;;4.40;3.88;;;;;;;;;;6288500;28;20638;-79
2022/05/11 10:08:15;;;;;;;9.48;4.55;;;;;;;;;;6289179;28;20510;-80
2022/05/11 10:11:23;;;;;;;4.50;4.10;;;;;;;;;;6300816;28;20099;-80
2022/05/11 10:21:54;;;;;;;5.50;3.95;;;;;;;;;;6316584;28;20138;-81
2022/05/11 10:25:15;;;;;;;6.75;3.70;;;;;;;;;;6315114;28;20574;-80
2022/05/11 10:28:20;;;;;;;7.05;3.60;;;;;;;;;;6337141;28;20504;-78
2022/05/11 10:31:45;;;;;;;10.27;3.35;;;;;;;;;;6338575;28;20100;-79
2022/05/11 10:35:16;;;;;;;5.00;3.25;;;;;;;;;;6336705;28;20114;-80
2022/05/11 10:38:23;;;;;;;6.43;3.35;;;;;;;;;;6337657;28;20107;-80
2022/05/11 10:41:35;;;;;;;4.95;3.15;;;;;;;;;;6338937;28;20633;-80
2022/05/11 10:45:04;;;;;;;4.13;3.20;;;;;;;;;;6316976;28;20047;-82
2022/05/11 10:48:32;;;;;;;4.43;3.30;;;;;;;;;;6316117;28;20060;-80
2022/05/11 10:51:55;;;;;;;6.22;3.30;;;;;;;;;;6291805;28;20105;-80
2022/05/11 10:55:25;;;;;;;5.35;3.17;;;;;;;;;;6291429;28;20048;-79
2022/05/11 10:59:15;;;;;;;5.63;3.47;;;;;;;;;;6266962;28;20057;-80
2022/05/11 11:02:32;;;;;;;4.80;3.50;;;;;;;;;;6247305;28;20047;-79
2022/05/11 11:07:11;;;;;;;7.10;3.35;;;;;;;;;;6314024;28;20484;-80
2022/05/11 11:09:25;;;;;;;3.97;2.92;;;;;;;;;;6314223;28;20068;-79
2022/05/11 11:12:42;;;;;;;5.32;3.30;;;;;;;;;;6326509;28;20075;-79
2022/05/11 11:15:44;;;;;;;3.47;3.17;;;;;;;;;;6340360;28;20104;-80
2022/05/11 11:18:49;;;;;;;;;;;;;;;;;;6297351;28;20123;-79
2022/05/11 11:21:51;;;;;;;5.82;3.33;;;;;;;;;;6287970;28;19927;-79
2022/05/11 11:25:45;;;;;;;10.57;3.67;;;;;;;;;;6289105;28;20498;-80
2022/05/11 11:29:07;;;;;;;4.90;3.20;;;;;;;;;;6254674;28;20483;-80
2022/05/11 11:32:21;;;;;;;7.60;3.10;;;;;;;;;;6277971;28;20123;-79
2022/05/11 11:35:23;;;;;;;4.03;3.40;;;;;;;;;;6290509;28;20086;-79
2022/05/11 11:38:31;;;;;;;4.53;3.37;;;;;;;;;;6287047;28;20129;-79
2022/05/11 11:42:03;;;;;;;5.05;3.40;;;;;;;;;;6288298;28;20118;-79
2022/05/11 11:45:11;;;;;;;6.15;3.58;;;;;;;;;;6289571;28;20095;-80
2022/05/11 11:48:24;;;;;;;4.95;3.45;;;;;;;;;;6300684;28;20166;-80
2022/05/11 11:51:32;;;;;;;4.95;3.42;;;;;;;;;;6313734;28;20044;-79
2022/05/11 11:54:37;;;;;;;3.85;3.28;;;;;;;;;;6315668;28;20048;-80
2022/05/11 11:57:39;;;;;;;3.95;3.50;;;;;;;;;;6289626;28;20414;-80
2022/05/11 12:00:59;;;;;;;7.30;3.15;;;;;;;;;;6288779;28;20536;-80
2022/05/11 12:04:09;;;;;;;3.60;3.05;;;;;;;;;;6290271;28;20083;-79
2022/05/11 12:18:20;;;;;;;5.22;3.30;;;;;;;;;;6298538;28;20763;-80
2022/05/11 12:21:29;;;;;;;6.75;3.50;;;;;;;;;;6314951;28;20051;-79
2022/05/11 12:24:37;;;;;;;6.65;3.72;;;;;;;;;;6314768;28;20047;-79
2022/05/11 12:27:39;;;;;;;4.45;3.33;;;;;;;;;;6297213;28;20045;-80
2022/05/11 12:30:43;;;;;;;7.93;3.67;;;;;;;;;;6289418;28;20174;-80
2022/05/11 12:33:53;;;;;;;4.03;3.63;;;;;;;;;;6290885;28;20121;-80
2022/05/11 12:36:56;;;;;;;5.45;3.08;;;;;;;;;;6307090;28;20079;-80
2022/05/11 12:40:38;;;;;;;5.82;3.45;;;;;;;;;;6294261;28;20044;-79
2022/05/11 12:43:57;;;;;;;3.47;3.10;;;;;;;;;;6176248;28;20146;-81
2022/05/11 12:47:01;;;;;;;7.93;3.40;;;;;;;;;;6283107;28;20045;-80
2022/05/11 12:50:03;;;;;;;4.45;4.05;;;;;;;;;;6292078;28;20036;-80
2022/05/11 12:53:16;;;;;;;4.78;3.53;;;;;;;;;;6294638;28;20116;-80
2022/05/11 12:56:22;;;;;;;5.25;3.42;;;;;;;;;;6296927;28;20166;-80
2022/05/11 12:59:27;;;;;;;5.18;3.28;;;;;;;;;;6320860;28;20109;-80
2022/05/11 13:02:33;;;;;;;4.63;2.92;;;;;;;;;;6310771;28;20131;-81
2022/05/11 13:05:35;;;;;;;4.00;3.60;;;;;;;;;;6293851;28;20045;-81
2022/05/11 13:08:42;;;;;;;4.57;3.30;;;;;;;;;;6283827;28;20135;-81
2022/05/11 13:11:45;;;;;;;6.07;3.53;;;;;;;;;;6292332;28;20052;-81
2022/05/11 13:14:50;;;;;;;7.53;3.17;;;;;;;;;;6294411;28;20131;-82
2022/05/11 13:17:52;;;;;;;3.70;3.20;;;;;;;;;;6292718;28;20112;-81
2022/05/11 13:20:56;;;;;;;6.68;3.50;;;;;;;;;;6291563;28;20229;-79
2022/05/11 13:23:58;;;;;;;4.53;3.88;;;;;;;;;;6292414;28;20056;-79
2022/05/11 13:26:59;;;;;;;6.50;3.58;;;;;;;;;;6294648;28;20037;-80
2022/05/11 13:30:32;;;;;;;4.93;3.60;;;;;;;;;;6312188;28;20641;-80
2022/05/11 13:33:42;;;;;;;5.55;3.30;;;;;;;;;;6288466;28;20367;-79
2022/05/11 13:36:45;;;;;;;5.00;3.42;;;;;;;;;;6291185;28;20040;-80
2022/05/11 13:39:50;;;;;;;4.13;3.00;;;;;;;;;;6285146;28;20041;-78
2022/05/11 13:42:52;;;;;;;5.15;3.30;;;;;;;;;;6294447;28;20699;-79
2022/05/11 13:46:09;;;;;;;7.07;3.20;;;;;;;;;;6278880;28;20143;-79
2022/05/11 13:49:26;;;;;;;5.25;3.38;;;;;;;;;;6291498;28;20494;-78
2022/05/11 13:52:48;;;;;;;5.63;3.17;;;;;;;;;;6283424;28;20131;-78
2022/05/11 13:56:02;;;;;;;;;;;;;;;;;;6297369;28;20640;-80
2022/05/11 13:59:03;;;;;;;5.93;3.25;;;;;;;;;;6309204;28;19947;-79
2022/05/11 14:02:05;;;;;;;3.50;3.15;;;;;;;;;;6303090;28;20052;-80
2022/05/11 14:05:07;;;;;;;5.97;3.05;;;;;;;;;;6285567;28;20040;-80
2022/05/11 14:08:10;;;;;;;4.68;3.10;;;;;;;;;;6290879;28;20136;-80
2022/05/11 14:11:12;;;;;;;;;;;;;;;;;;6287385;28;20079;-79
2022/05/11 14:14:14;;;;;;;6.18;3.13;;;;;;;;;;6291252;28;19974;-81
2022/05/11 14:17:20;;;;;;;4.05;3.00;;;;;;;;;;6311285;28;20082;-81
2022/05/11 14:20:25;;;;;;;4.68;2.90;;;;;;;;;;6301201;28;20123;-83
2022/05/11 14:23:32;;;;;;;6.15;3.25;;;;;;;;;;6289200;28;20287;-80
2022/05/11 14:26:34;;;;;;;3.75;2.95;;;;;;;;;;6296051;28;20905;-80
2022/05/11 14:29:44;;;;;;;4.13;2.92;;;;;;;;;;6277480;28;20044;-80
2022/05/11 14:32:47;;;;;;;6.10;3.50;;;;;;;;;;6283412;28;20669;-80
2022/05/11 14:35:50;;;;;;;5.35;2.83;;;;;;;;;;6279893;28;20560;-80
2022/05/11 14:38:52;;;;;;;6.38;2.88;;;;;;;;;;6282921;28;20122;-79
2022/05/11 14:41:55;;;;;;;4.65;2.72;;;;;;;;;;6280572;28;20710;-80
2022/05/11 14:44:57;;;;;;;4.63;2.70;;;;;;;;;;6283009;28;20123;-79
2022/05/11 14:48:22;;;;;;;2.90;2.70;;;;;;;;;;6280196;28;20052;-79
2022/05/11 14:51:25;;;;;;;5.40;2.70;;;;;;;;;;6282085;28;20139;-79
2022/05/11 14:54:26;;;;;;;3.20;2.75;;;;;;;;;;6285176;28;20089;-81
2022/05/11 15:04:15;;;;;;;5.93;3.20;;;;;;;;;;6309872;28;20047;-79
2022/05/11 15:07:17;;;;;;;3.83;2.40;;;;;;;;;;6310105;28;20048;-80
2022/05/11 15:10:19;;;;;;;3.47;2.78;;;;;;;;;;6304745;28;20052;-79
2022/05/11 15:13:30;;;;;;;3.70;2.70;;;;;;;;;;6300298;28;20051;-80
2022/05/11 15:16:32;;;;;;;3.33;2.80;;;;;;;;;;6308998;28;20047;-79
2022/05/11 15:19:34;;;;;;;5.55;2.83;;;;;;;;;;6283671;28;20155;-81
2022/05/11 15:22:36;;;;;;;3.53;2.42;;;;;;;;;;6284539;28;20102;-80
2022/05/11 15:25:39;;;;;;;3.75;2.67;;;;;;;;;;6288228;28;20135;-80
2022/05/11 15:28:40;;;;;;;;;;;;;;;;;;6281627;28;20511;-81
2022/05/11 15:31:42;;;;;;;2.55;2.35;;;;;;;;;;6284497;28;19955;-79
2022/05/11 15:34:44;;;;;;;6.57;2.30;;;;;;;;;;6293788;28;20045;-80
2022/05/11 15:37:47;;;;;;;4.85;2.20;;;;;;;;;;6290043;28;20122;-80
2022/05/11 15:40:48;;;;;;;4.45;2.20;;;;;;;;;;6290751;28;20456;-79
2022/05/11 15:43:50;;;;;;;5.88;2.35;;;;;;;;;;6308648;28;20047;-79
2022/05/11 15:46:52;;;;;;;5.10;2.30;;;;;;;;;;6301328;28;20311;-80
2022/05/11 15:49:54;;;;;;;6.85;2.10;;;;;;;;;;6315420;28;20054;-80
2022/05/11 15:52:56;;;;;;;5.50;2.30;;;;;;;;;;6315915;28;20055;-79
2022/05/11 15:55:58;;;;;;;5.10;2.20;;;;;;;;;;6313983;28;20075;-80
2022/05/11 15:58:59;;;;;;;4.95;2.08;;;;;;;;;;6285278;28;20141;-79
2022/05/11 16:02:03;;;;;;;5.57;2.40;;;;;;;;;;6293221;28;20040;-79
2022/05/11 16:05:05;;;;;;;6.10;2.38;;;;;;;;;;6313995;28;20377;-81
2022/05/11 16:08:08;;;;;;;5.30;1.92;;;;;;;;;;6314870;28;20051;-79
2022/05/11 16:11:23;;;;;;;4.80;2.25;;;;;;;;;;6304922;28;20104;-79
2022/05/11 16:14:25;;;;;;;5.15;2.60;;;;;;;;;;6292223;28;20086;-79
2022/05/11 16:20:53;;;;;;;3.35;2.00;;;;;;;;;;6283483;28;20127;-79
2022/05/11 16:24:03;;;;;;;2.83;1.90;;;;;;;;;;6310686;28;20048;-79
2022/05/11 16:27:04;;;;;;;;;;;;;;;;;;6315898;28;20124;-78
2022/05/11 16:30:07;;;;;;;4.32;2.10;;;;;;;;;;6336633;28;20800;-79
2022/05/11 16:33:09;;;;;;;9.48;6.22;;;;;;;;;;6323975;28;20064;-78
2022/05/11 16:36:11;;;;;;;4.37;2.03;;;;;;;;;;6311145;28;20044;-79
2022/05/11 16:39:13;;;;;;;2.78;1.95;;;;;;;;;;6311321;28;20438;-78
2022/05/11 16:42:16;;;;;;;2.67;1.98;;;;;;;;;;6311923;28;20052;-80
2022/05/11 16:45:17;;;;;;;5.28;2.20;;;;;;;;;;6315413;28;20040;-78
2022/05/11 16:48:19;;;;;;;3.87;1.77;;;;;;;;;;6327236;28;20476;-79
2022/05/11 16:51:21;;;;;;;4.28;2.10;;;;;;;;;;6341839;28;20477;-81
2022/05/11 16:54:23;;;;;;;3.13;1.73;;;;;;;;;;6341921;28;20059;-80
2022/05/11 16:57:25;;;;;;;3.00;2.05;;;;;;;;;;6319118;28;20453;-79
2022/05/11 17:00:27;;;;;;;6.18;1.80;;;;;;;;;;6336195;28;20055;-79
2022/05/11 17:03:29;;;;;;;2.97;1.93;;;;;;;;;;6308956;28;20090;-80
2022/05/11 17:06:31;;;;;;;4.68;2.22;;;;;;;;;;6320205;28;21243;-79
2022/05/11 17:09:32;;;;;;;6.90;1.90;;;;;;;;;;6335193;28;20526;-79
2022/05/11 17:12:34;;;;;;;2.33;1.73;;;;;;;;;;6326989;28;20123;-79
2022/05/11 17:15:53;;;;;;;3.65;1.75;;;;;;;;;;6335081;28;20081;-78
2022/05/11 17:18:55;;;;;;;6.55;1.90;;;;;;;;;;6315742;28;20036;-79
2022/05/11 17:21:59;;;;;;;5.03;1.83;;;;;;;;;;6307502;28;20677;-78
2022/05/11 17:25:01;;;;;;;4.50;1.80;;;;;;;;;;6315084;28;20036;-80
2022/05/11 17:28:03;;;;;;;3.97;1.67;;;;;;;;;;6337549;28;20579;-80
2022/05/11 17:31:05;;;;;;;4.97;2.00;;;;;;;;;;6315996;28;20521;-80
2022/05/11 17:34:07;;;;;;;1.70;1.42;;;;;;;;;;6294753;28;20047;-80
2022/05/11 17:37:09;;;;;;;2.80;2.07;;;;;;;;;;6315148;28;20184;-80
2022/05/11 17:40:13;;;;;;;4.53;1.60;;;;;;;;;;6312848;28;20155;-80
2022/05/11 17:43:15;;;;;;;4.13;1.80;;;;;;;;;;6315512;28;20063;-79
2022/05/11 17:46:17;;;;;;;;;;;;;;;;;;6314961;28;20059;-79
2022/05/11 17:49:19;;;;;;;3.53;1.80;;;;;;;;;;6313311;28;19987;-80
2022/05/11 17:52:20;;;;;;;2.60;1.50;;;;;;;;;;6312017;28;20051;-80
2022/05/11 17:55:24;;;;;;;3.13;1.45;;;;;;;;;;6315802;28;20112;-80
2022/05/11 17:58:25;;;;;;;7.03;1.90;;;;;;;;;;6313743;28;20079;-79
2022/05/11 18:01:27;;;;;;;2.72;1.50;;;;;;;;;;6291360;28;20131;-78
2022/05/11 18:04:29;;;;;;;3.10;1.60;;;;;;;;;;6293429;28;20068;-78
2022/05/11 18:07:31;;;;;;;2.73;1.50;;;;;;;;;;6284231;28;20070;-79
2022/05/11 18:10:33;;;;;;;3.67;1.58;;;;;;;;;;6283145;28;20181;-79
2022/05/11 18:13:35;;;;;;;5.07;1.92;;;;;;;;;;6282691;28;20055;-79
2022/05/11 18:16:37;;;;;;;2.60;1.63;;;;;;;;;;6283566;28;20123;-79
2022/05/11 18:19:40;;;;;;;3.70;1.60;;;;;;;;;;6304999;28;20106;-79
2022/05/11 18:22:43;;;;;;;;;;;;;;;;;;6305332;28;20134;-79
2022/05/11 18:25:46;;;;;;;5.43;1.73;;;;;;;;;;6279847;28;20028;-79
2022/05/11 18:28:48;;;;;;;3.40;1.70;;;;;;;;;;6297754;28;20040;-79
2022/05/11 18:31:50;;;;;;;2.00;1.50;;;;;;;;;;6301649;28;20039;-79
2022/05/11 18:34:51;;;;;;;3.00;1.77;;;;;;;;;;6280861;28;20128;-79
2022/05/11 18:37:53;;;;;;;4.67;1.57;;;;;;;;;;6279748;28;20841;-79
2022/05/11 18:40:55;;;;;;;3.05;1.65;;;;;;;;;;6279481;28;20049;-79
2022/05/11 18:43:56;;;;;;;2.00;1.47;;;;;;;;;;6302264;28;20074;-79
2022/05/11 18:46:58;;;;;;;4.80;1.70;;;;;;;;;;6295870;28;20417;-79
2022/05/11 18:50:01;;;;;;;2.90;1.90;;;;;;;;;;6307025;28;20036;-79
2022/05/11 18:53:02;;;;;;;5.00;1.95;;;;;;;;;;6299111;28;20175;-79
2022/05/11 18:56:05;;;;;;;4.73;2.10;;;;;;;;;;6283944;28;20043;-79
2022/05/11 18:59:06;;;;;;;2.25;1.85;;;;;;;;;;6303655;28;20113;-78
2022/05/11 19:02:08;;;;;;;3.58;1.67;;;;;;;;;;6305324;28;20090;-79
2022/05/11 19:05:11;;;;;;;4.25;2.05;;;;;;;;;;6284199;28;20133;-79
2022/05/11 19:08:13;;;;;;;4.82;1.98;;;;;;;;;;6286954;28;20040;-80
2022/05/11 19:11:16;;;;;;;2.90;1.77;;;;;;;;;;6286494;28;20124;-79
2022/05/11 19:14:18;;;;;;;1.98;1.50;;;;;;;;;;6306106;28;20032;-79
2022/05/11 19:17:20;;;;;;;1.83;1.58;;;;;;;;;;6300535;28;20513;-79
2022/05/11 19:20:27;;;;;;;3.03;1.50;;;;;;;;;;6283453;28;20115;-79
2022/05/11 19:23:29;;;;;;;2.35;1.38;;;;;;;;;;6283754;28;20125;-79